createdAt,value
2019-02-15T00:01:18.492Z,58.66
2019-02-15T00:03:22.686Z,58.83
2019-02-15T00:05:28.923Z,58.82
2019-02-15T00:07:33.409Z,58.83
2019-02-15T00:09:37.591Z,58.88
2019-02-15T00:11:41.894Z,58.97
2019-02-15T00:13:46.407Z,59.08
2019-02-15T00:15:50.663Z,59.22
2019-02-15T00:18:14.052Z,59.21
2019-02-15T00:20:26.758Z,59.21
2019-02-15T00:22:31.261Z,59.12
2019-02-15T00:24:37.599Z,59.13
2019-02-15T00:26:41.770Z,59.25
2019-02-15T00:28:46.095Z,59.32
2019-02-15T00:30:50.514Z,59.37
2019-02-15T00:32:54.868Z,59.45
2019-02-15T00:34:59.266Z,59.43
2019-02-15T00:37:03.812Z,59.73
2019-02-15T00:39:08.328Z,59.90
2019-02-15T00:41:12.757Z,60.11
2019-02-15T00:43:22.247Z,60.26
2019-02-15T00:45:26.637Z,60.33
2019-02-15T00:47:52.852Z,60.45
2019-02-15T00:50:11.343Z,60.65
2019-02-15T00:52:34.451Z,60.74
2019-02-15T00:55:00.118Z,60.74
2019-02-15T00:57:26.599Z,60.83
2019-02-15T00:59:56.064Z,60.97
2019-02-15T01:02:37.257Z,61.05
2019-02-15T01:05:00.904Z,61.09
2019-02-15T01:07:36.170Z,61.50
2019-02-15T01:09:48.314Z,61.85
2019-02-15T01:11:58.749Z,62.05
2019-02-15T01:14:02.835Z,62.18
2019-02-15T01:16:07.121Z,62.16
2019-02-15T01:18:11.516Z,62.03
2019-02-15T01:20:15.769Z,61.97
2019-02-15T01:22:20.459Z,62.28
2019-02-15T01:24:24.806Z,62.49
2019-02-15T01:26:47.884Z,62.37
2019-02-15T01:29:14.669Z,62.39
2019-02-15T01:31:40.853Z,62.18
2019-02-15T01:33:56.825Z,61.85
2019-02-15T01:36:28.734Z,61.71
2019-02-15T01:38:52.118Z,61.59
2019-02-15T01:41:18.926Z,61.49
2019-02-15T01:43:57.285Z,61.39
2019-02-15T01:46:09.951Z,61.29
2019-02-15T01:48:14.593Z,61.33
2019-02-15T01:50:18.876Z,61.55
2019-02-15T01:52:23.511Z,61.83
2019-02-15T01:54:27.958Z,62.06
2019-02-15T01:56:32.444Z,62.38
2019-02-15T01:58:36.850Z,62.51
2019-02-15T02:00:41.504Z,62.92
2019-02-15T02:02:46.394Z,63.58
2019-02-15T02:04:50.606Z,63.69
2019-02-15T02:06:55.351Z,63.67
2019-02-15T02:08:59.874Z,63.54
2019-02-15T02:11:04.339Z,63.59
2019-02-15T02:13:08.805Z,63.67
2019-02-15T02:15:13.753Z,63.82
2019-02-15T02:17:18.152Z,63.84
2019-02-15T02:19:22.692Z,63.88
2019-02-15T02:21:26.869Z,63.69
2019-02-15T02:23:31.404Z,63.58
2019-02-15T02:25:35.819Z,63.43
2019-02-15T02:27:40.293Z,63.31
2019-02-15T02:29:44.914Z,63.17
2019-02-15T02:31:49.381Z,63.02
2019-02-15T02:33:53.978Z,62.91
2019-02-15T02:35:59.133Z,62.76
2019-02-15T02:38:03.821Z,62.62
2019-02-15T02:40:08.351Z,62.53
2019-02-15T02:42:12.694Z,62.41
2019-02-15T02:44:16.886Z,62.47
2019-02-15T02:46:21.104Z,62.43
2019-02-15T02:48:27.520Z,62.48
2019-02-15T02:50:31.780Z,62.41
2019-02-15T02:52:36.168Z,62.38
2019-02-15T02:54:40.744Z,62.37
2019-02-15T02:56:45.027Z,62.34
2019-02-15T02:58:49.340Z,62.30
2019-02-15T03:00:53.936Z,62.25
2019-02-15T03:02:58.530Z,62.24
2019-02-15T03:05:06.218Z,62.28
2019-02-15T03:07:10.614Z,62.29
2019-02-15T03:09:17.720Z,62.21
2019-02-15T03:11:22.104Z,62.18
2019-02-15T03:13:26.507Z,62.17
2019-02-15T03:15:31.005Z,62.35
2019-02-15T03:17:35.609Z,62.49
2019-02-15T03:19:39.789Z,62.49
2019-02-15T03:21:43.995Z,62.39
2019-02-15T03:23:48.242Z,62.31
2019-02-15T03:25:52.615Z,62.29
2019-02-15T03:27:57.275Z,62.35
2019-02-15T03:30:01.714Z,62.40
2019-02-15T03:32:05.781Z,62.41
2019-02-15T03:34:09.897Z,62.40
2019-02-15T03:36:22.468Z,62.39
2019-02-15T03:38:35.241Z,62.32
2019-02-15T03:40:44.790Z,62.26
2019-02-15T03:42:51.010Z,62.24
2019-02-15T03:44:55.335Z,62.28
2019-02-15T03:46:59.585Z,62.26
2019-02-15T03:49:03.957Z,62.25
2019-02-15T03:51:08.175Z,62.32
2019-02-15T03:53:12.530Z,62.26
2019-02-15T03:55:20.077Z,62.26
2019-02-15T03:57:24.204Z,62.29
2019-02-15T03:59:28.571Z,62.26
2019-02-15T04:01:32.953Z,62.20
2019-02-15T04:03:37.311Z,62.21
2019-02-15T04:05:41.939Z,62.49
2019-02-15T04:07:46.483Z,62.83
2019-02-15T04:09:53.754Z,63.01
2019-02-15T04:11:58.210Z,63.18
2019-02-15T04:14:02.274Z,63.16
2019-02-15T04:16:06.595Z,63.04
2019-02-15T04:18:10.729Z,62.93
2019-02-15T04:20:15.124Z,62.85
2019-02-15T04:22:19.297Z,62.82
2019-02-15T04:24:24.308Z,62.74
2019-02-15T04:26:28.653Z,62.76
2019-02-15T04:28:33.007Z,62.76
2019-02-15T04:30:37.378Z,62.75
2019-02-15T04:32:41.712Z,62.71
2019-02-15T04:34:46.315Z,62.69
2019-02-15T04:36:50.651Z,62.67
2019-02-15T04:38:55.159Z,62.73
2019-02-15T04:40:59.967Z,62.73
2019-02-15T04:43:04.097Z,62.70
2019-02-15T04:45:08.647Z,62.64
2019-02-15T04:47:12.943Z,62.65
2019-02-15T04:49:17.284Z,62.76
2019-02-15T04:51:22.038Z,62.92
2019-02-15T04:53:26.380Z,63.02
2019-02-15T04:55:30.768Z,63.03
2019-02-15T04:57:34.972Z,62.95
2019-02-15T04:59:39.057Z,62.86
2019-02-15T05:01:43.432Z,62.80
2019-02-15T05:03:48.019Z,62.74
2019-02-15T05:05:52.555Z,62.68
2019-02-15T05:07:56.863Z,62.67
2019-02-15T05:10:01.098Z,62.67
2019-02-15T05:12:05.264Z,62.67
2019-02-15T05:14:09.647Z,62.67
2019-02-15T05:16:14.280Z,62.71
2019-02-15T05:18:19.041Z,62.76
2019-02-15T05:20:23.463Z,62.88
2019-02-15T05:22:28.042Z,62.99
2019-02-15T05:24:32.384Z,63.12
2019-02-15T05:26:36.730Z,63.18
2019-02-15T05:28:41.197Z,63.31
2019-02-15T05:30:45.479Z,63.40
2019-02-15T05:32:50.133Z,63.36
2019-02-15T05:34:54.519Z,63.48
2019-02-15T05:36:58.725Z,63.82
2019-02-15T05:39:03.142Z,64.05
2019-02-15T05:41:07.711Z,64.00
2019-02-15T05:43:14.952Z,63.89
2019-02-15T05:45:19.119Z,63.79
2019-02-15T05:47:23.508Z,63.65
2019-02-15T05:49:27.761Z,63.55
2019-02-15T05:51:34.511Z,63.47
2019-02-15T05:53:41.301Z,63.41
2019-02-15T05:55:45.848Z,63.40
2019-02-15T05:57:50.385Z,63.43
2019-02-15T05:59:54.567Z,63.75
2019-02-15T06:01:58.655Z,64.08
2019-02-15T06:04:03.375Z,64.09
2019-02-15T06:06:07.852Z,64.30
2019-02-15T06:08:12.337Z,64.32
2019-02-15T06:10:16.327Z,64.28
2019-02-15T06:12:20.504Z,64.18
2019-02-15T06:14:25.126Z,63.98
2019-02-15T06:16:29.680Z,63.92
2019-02-15T06:18:33.934Z,63.92
2019-02-15T06:20:40.714Z,63.87
2019-02-15T06:22:47.183Z,63.81
2019-02-15T06:24:51.593Z,63.80
2019-02-15T06:26:56.198Z,63.87
2019-02-15T06:29:00.810Z,63.87
2019-02-15T06:31:07.724Z,63.76
2019-02-15T06:33:12.882Z,63.96
2019-02-15T06:41:15.431Z,63.66
2019-02-15T06:43:34.134Z,63.38
2019-02-15T06:46:00.056Z,63.30
2019-02-15T06:48:12.611Z,63.26
2019-02-15T06:50:38.037Z,63.23
2019-02-15T06:53:10.010Z,63.17
2019-02-15T06:55:43.306Z,63.01
2019-02-15T06:57:49.138Z,62.56
2019-02-15T07:00:31.460Z,62.05
2019-02-15T07:02:55.360Z,61.69
2019-02-15T07:05:26.239Z,61.40
2019-02-15T07:07:37.318Z,61.31
2019-02-15T07:09:47.576Z,61.10
2019-02-15T07:11:59.172Z,61.18
2019-02-15T07:14:06.360Z,61.31
2019-02-15T07:16:15.830Z,61.33
2019-02-15T07:21:50.453Z,60.97
2019-02-15T07:24:10.049Z,60.63
2019-02-15T07:26:27.988Z,60.60
2019-02-15T07:28:41.562Z,60.85
2019-02-15T07:31:05.442Z,60.88
2019-02-15T07:39:01.285Z,60.46
2019-02-15T07:41:24.289Z,60.59
2019-02-15T07:57:13.125Z,56.85
2019-02-15T08:12:09.239Z,55.04
2019-02-15T08:25:58.113Z,52.13
2019-02-15T08:28:07.188Z,51.34
2019-02-15T08:30:21.979Z,51.24
2019-02-15T08:32:39.859Z,50.62
2019-02-15T08:34:52.132Z,49.14
2019-02-15T08:37:11.036Z,47.45
2019-02-15T08:39:31.285Z,46.00
2019-02-15T08:42:01.376Z,45.22
2019-02-15T08:44:10.583Z,43.85
2019-02-15T08:51:58.357Z,38.76
2019-02-15T08:54:26.875Z,37.38
2019-02-15T08:56:45.340Z,37.42
2019-02-15T08:58:54.730Z,37.93
2019-02-15T09:01:22.848Z,36.63
2019-02-15T09:03:31.512Z,35.45
2019-02-15T09:05:50.353Z,34.71
2019-02-15T09:08:19.150Z,34.24
2019-02-15T09:17:22.036Z,32.43
2019-02-15T09:19:46.477Z,30.44
2019-02-15T09:22:23.217Z,28.27
2019-02-15T09:25:12.443Z,27.52
2019-02-15T09:27:52.376Z,27.68
2019-02-15T09:31:50.031Z,28.22
2019-02-15T09:32:57.117Z,28.69
2019-02-15T09:35:28.317Z,29.13
2019-02-15T09:43:58.586Z,29.97
2019-02-15T09:46:57.181Z,30.22
2019-02-15T09:49:37.513Z,30.05
2019-02-15T09:52:11.047Z,29.90
2019-02-15T09:54:25.293Z,29.86
2019-02-15T09:56:47.204Z,30.17
2019-02-15T09:58:55.778Z,30.25
2019-02-15T10:01:23.402Z,30.09
2019-02-15T10:04:13.462Z,29.85
2019-02-15T10:09:10.301Z,29.50
2019-02-15T10:11:24.945Z,29.65
2019-02-15T10:13:44.120Z,29.63
2019-02-15T10:16:10.969Z,29.50
2019-02-15T10:18:30.657Z,29.77
2019-02-15T10:20:43.593Z,29.70
2019-02-15T10:22:56.733Z,29.53
2019-02-15T10:25:16.295Z,29.42
2019-02-15T10:27:41.459Z,29.16
2019-02-15T10:35:19.618Z,27.80
2019-02-15T10:37:50.294Z,26.81
2019-02-15T10:40:06.174Z,25.64
2019-02-15T10:42:11.244Z,24.44
2019-02-15T10:44:21.327Z,24.22
2019-02-15T10:46:26.958Z,23.79
2019-02-15T10:48:36.723Z,22.99
2019-02-15T10:50:51.404Z,22.22
2019-02-15T10:53:07.791Z,21.09
2019-02-15T10:55:18.244Z,20.05
2019-02-15T10:57:28.458Z,18.98
2019-02-15T10:59:44.262Z,18.21
2019-02-15T11:04:31.553Z,17.13
2019-02-15T11:06:52.867Z,16.43
2019-02-15T11:09:10.417Z,16.18
2019-02-15T11:11:26.942Z,15.99
2019-02-15T11:13:45.932Z,15.46
2019-02-15T11:16:07.781Z,15.88
2019-02-15T11:18:38.002Z,17.00
2019-02-15T11:20:47.595Z,18.49
2019-02-15T11:23:08.746Z,19.82
2019-02-15T11:30:53.700Z,19.71
2019-02-15T11:33:06.247Z,20.80
2019-02-15T11:35:11.647Z,21.03
2019-02-15T11:37:24.496Z,20.93
2019-02-15T11:39:41.115Z,21.20
2019-02-15T11:41:50.642Z,21.04
2019-02-15T11:43:59.546Z,21.30
2019-02-15T11:46:14.879Z,22.01
2019-02-15T11:48:35.952Z,22.83
2019-02-15T11:50:52.449Z,22.50
2019-02-15T11:52:59.286Z,22.97
2019-02-15T11:55:17.022Z,22.58
2019-02-15T11:57:38.664Z,21.31
2019-02-15T11:59:53.235Z,20.16
2019-02-15T12:02:15.513Z,19.99
2019-02-15T12:04:33.445Z,20.06
2019-02-15T12:06:55.076Z,20.08
2019-02-15T12:08:59.744Z,20.78
2019-02-15T12:11:14.284Z,20.64
2019-02-15T12:13:35.042Z,20.75
2019-02-15T12:15:43.020Z,20.72
2019-02-15T12:17:57.828Z,20.67
2019-02-15T12:25:59.038Z,21.79
2019-02-15T12:28:11.757Z,21.98
2019-02-15T12:30:20.837Z,22.42
2019-02-15T12:32:34.923Z,22.69
2019-02-15T12:34:48.889Z,22.50
2019-02-15T12:36:58.602Z,21.86
2019-02-15T12:39:16.419Z,21.19
2019-02-15T12:41:23.905Z,21.25
2019-02-15T12:43:59.094Z,21.45
2019-02-15T12:46:06.364Z,20.58
2019-02-15T12:50:42.663Z,19.76
2019-02-15T12:52:05.671Z,19.98
2019-02-15T12:54:28.727Z,21.06
2019-02-15T12:56:42.045Z,20.64
2019-02-15T12:58:49.505Z,20.66
2019-02-15T13:01:31.593Z,20.28
2019-02-15T13:03:57.527Z,19.90
2019-02-15T13:06:08.419Z,19.94
2019-02-15T13:08:33.729Z,20.69
2019-02-15T13:10:47.748Z,21.84
2019-02-15T13:13:05.352Z,23.16
2019-02-15T13:15:20.774Z,24.27
2019-02-15T13:17:48.323Z,25.00
2019-02-15T13:20:05.372Z,25.61
2019-02-15T13:22:20.259Z,26.14
2019-02-15T13:24:27.093Z,26.94
2019-02-15T13:26:54.831Z,27.49
2019-02-15T13:29:04.418Z,27.89
2019-02-15T13:31:24.136Z,28.18
2019-02-15T13:33:32.493Z,28.45
2019-02-15T13:41:16.870Z,29.34
2019-02-15T13:43:53.401Z,29.63
2019-02-15T13:46:17.153Z,29.89
2019-02-15T13:51:11.782Z,30.35
2019-02-15T13:53:22.105Z,30.56
2019-02-15T13:55:42.185Z,30.71
2019-02-15T13:57:48.568Z,30.82
2019-02-15T14:00:12.734Z,30.84
2019-02-15T14:02:20.199Z,30.90
2019-02-15T14:04:30.262Z,31.01
2019-02-15T14:06:51.633Z,31.16
2019-02-15T14:09:08.930Z,31.28
2019-02-15T14:37:11.383Z,32.71
2019-02-15T14:40:00.405Z,32.83
2019-02-15T14:45:53.992Z,32.90
2019-02-15T14:48:20.026Z,32.97
2019-02-15T14:51:04.118Z,32.96
2019-02-15T14:53:39.566Z,33.17
2019-02-15T14:59:45.318Z,33.04
2019-02-15T15:02:22.000Z,33.11
2019-02-15T15:04:51.775Z,33.12
2019-02-15T15:07:24.631Z,33.21
2019-02-15T15:12:28.115Z,33.36
2019-02-15T15:15:08.555Z,33.51
2019-02-15T15:18:59.740Z,33.67
2019-02-15T15:20:26.297Z,33.86
2019-02-15T15:37:16.756Z,34.49
2019-02-15T15:40:10.674Z,34.67
2019-02-15T15:43:06.971Z,34.94
2019-02-15T15:48:32.792Z,35.46
2019-02-15T16:10:26.234Z,36.67
2019-02-15T16:15:17.472Z,37.18
2019-02-15T16:17:23.910Z,37.33
2019-02-15T16:19:28.960Z,37.58
2019-02-15T16:21:33.839Z,37.80
2019-02-15T16:23:39.179Z,38.02
2019-02-15T16:25:44.401Z,38.19
2019-02-15T16:27:49.503Z,38.39
2019-02-15T16:29:54.237Z,38.55
2019-02-15T16:31:59.188Z,38.71
2019-02-15T16:34:05.767Z,38.86
2019-02-15T16:36:10.227Z,38.95
2019-02-15T16:38:14.995Z,39.10
2019-02-15T16:40:19.978Z,39.18
2019-02-15T16:42:24.445Z,39.21
2019-02-15T16:44:29.023Z,39.29
2019-02-15T16:46:33.948Z,39.44
2019-02-15T16:48:42.020Z,39.59
2019-02-15T16:50:44.533Z,39.73
2019-02-15T16:52:49.631Z,39.88
2019-02-15T16:54:57.693Z,40.03
2019-02-15T16:57:02.254Z,40.21
2019-02-15T16:59:06.779Z,40.39
2019-02-15T17:01:11.451Z,40.58
2019-02-15T17:03:16.242Z,40.73
2019-02-15T17:05:20.540Z,40.92
2019-02-15T17:07:25.622Z,41.08
2019-02-15T17:09:32.181Z,41.23
2019-02-15T17:11:36.877Z,41.35
2019-02-15T17:13:41.857Z,41.58
2019-02-15T17:15:46.879Z,41.75
2019-02-15T17:17:51.528Z,41.96
2019-02-15T17:19:56.695Z,42.15
2019-02-15T17:22:01.587Z,42.26
2019-02-15T17:24:06.260Z,42.51
2019-02-15T17:26:10.916Z,42.66
2019-02-15T17:28:15.976Z,42.81
2019-02-15T17:30:20.599Z,43.03
2019-02-15T17:32:25.108Z,43.21
2019-02-15T17:34:30.034Z,43.36
2019-02-15T17:36:34.736Z,43.53
2019-02-15T17:38:39.326Z,43.71
2019-02-15T17:40:43.729Z,43.81
2019-02-15T17:42:48.152Z,43.85
2019-02-15T17:44:52.689Z,43.92
2019-02-15T17:46:57.224Z,43.99
2019-02-15T17:49:03.366Z,44.17
2019-02-15T17:51:10.368Z,44.34
2019-02-15T17:53:15.501Z,44.51
2019-02-15T17:55:20.239Z,44.67
2019-02-15T17:57:26.208Z,44.83
2019-02-15T17:59:31.511Z,45.01
2019-02-15T18:01:36.210Z,45.10
2019-02-15T18:03:40.811Z,45.34
2019-02-15T18:05:45.118Z,45.60
2019-02-15T18:07:50.549Z,45.75
2019-02-15T18:09:55.082Z,45.94
2019-02-15T18:11:59.991Z,46.06
2019-02-15T18:14:04.500Z,46.15
2019-02-15T18:16:09.670Z,46.44
2019-02-15T18:18:14.436Z,46.58
2019-02-15T18:20:18.934Z,46.65
2019-02-15T18:22:25.782Z,46.72
2019-02-15T18:24:32.826Z,46.81
2019-02-15T18:26:37.878Z,47.01
2019-02-15T18:28:43.090Z,47.13
2019-02-15T18:30:47.486Z,47.24
2019-02-15T18:32:52.531Z,47.46
2019-02-15T18:35:00.398Z,47.58
2019-02-15T18:37:04.909Z,47.71
2019-02-15T18:39:10.118Z,47.88
2019-02-15T18:41:14.922Z,48.03
2019-02-15T18:43:19.610Z,48.07
2019-02-15T18:45:24.694Z,48.10
2019-02-15T18:47:29.698Z,48.25
2019-02-15T18:49:34.653Z,48.40
2019-02-15T18:51:42.507Z,48.59
2019-02-15T18:53:47.294Z,48.71
2019-02-15T18:55:51.915Z,48.81
2019-02-15T18:57:57.158Z,49.05
2019-02-15T19:00:02.014Z,49.32
2019-02-15T19:02:06.752Z,49.40
2019-02-15T19:04:11.853Z,49.54
2019-02-15T19:06:16.593Z,49.66
2019-02-15T19:08:23.295Z,49.85
2019-02-15T19:10:27.929Z,49.88
2019-02-15T19:12:32.534Z,49.96
2019-02-15T19:14:36.991Z,50.05
2019-02-15T19:16:42.243Z,50.12
2019-02-15T19:18:47.366Z,50.19
2019-02-15T19:20:52.250Z,50.27
2019-02-15T19:22:57.872Z,50.36
2019-02-15T19:25:03.199Z,50.37
2019-02-15T19:27:08.629Z,50.53
2019-02-15T19:29:13.794Z,50.61
2019-02-15T19:31:19.796Z,50.70
2019-02-15T19:33:25.093Z,50.78
2019-02-15T19:35:30.232Z,50.76
2019-02-15T19:37:35.480Z,50.83
2019-02-15T19:39:40.639Z,50.86
2019-02-15T19:41:45.853Z,50.98
2019-02-15T19:43:51.068Z,51.05
2019-02-15T19:45:56.312Z,51.25
2019-02-15T19:48:01.334Z,51.33
2019-02-15T19:50:09.794Z,51.44
2019-02-15T19:52:14.540Z,51.48
2019-02-15T19:54:19.480Z,51.47
2019-02-15T19:56:24.341Z,51.48
2019-02-15T19:58:29.469Z,51.55
2019-02-15T20:00:35.596Z,51.59
2019-02-15T20:02:40.716Z,51.67
2019-02-15T20:04:45.710Z,51.71
2019-02-15T20:06:50.734Z,51.76
2019-02-15T20:08:55.940Z,51.78
2019-02-15T20:11:01.113Z,51.86
2019-02-15T20:13:06.150Z,51.89
2019-02-15T20:15:11.914Z,52.01
2019-02-15T20:17:16.852Z,52.17
2019-02-15T20:19:21.467Z,52.21
2019-02-15T20:21:26.494Z,52.23
2019-02-15T20:23:31.811Z,52.29
2019-02-15T20:25:36.255Z,52.33
2019-02-15T20:27:40.720Z,52.37
2019-02-15T20:29:49.427Z,52.40
2019-02-15T20:31:52.565Z,52.44
2019-02-15T20:33:57.739Z,52.46
2019-02-15T20:36:03.008Z,52.58
2019-02-15T20:38:08.811Z,52.63
2019-02-15T20:40:14.402Z,52.78
2019-02-15T20:42:19.882Z,52.79
2019-02-15T20:44:25.192Z,53.14
2019-02-15T20:46:30.469Z,53.50
2019-02-15T20:48:38.556Z,53.59
2019-02-15T20:50:43.721Z,53.56
2019-02-15T20:52:49.777Z,53.72
2019-02-15T20:54:55.076Z,53.85
2019-02-15T20:57:01.020Z,54.00
2019-02-15T20:59:05.782Z,54.11
2019-02-15T21:01:10.927Z,54.16
2019-02-15T21:03:17.812Z,54.27
2019-02-15T21:05:23.735Z,54.30
2019-02-15T21:07:28.540Z,54.22
2019-02-15T21:09:33.997Z,54.20
2019-02-15T21:11:39.434Z,54.26
2019-02-15T21:13:44.256Z,54.62
2019-02-15T21:15:49.697Z,54.84
2019-02-15T21:17:54.821Z,54.98
2019-02-15T21:20:07.430Z,55.06
2019-02-15T21:22:06.425Z,55.13
2019-02-15T21:24:11.359Z,55.23
2019-02-15T21:26:15.954Z,55.26
2019-02-15T21:28:21.425Z,55.28
2019-02-15T21:30:26.339Z,55.30
2019-02-15T21:32:32.188Z,55.32
2019-02-15T21:34:37.225Z,55.39
2019-02-15T21:36:41.908Z,55.42
2019-02-15T21:38:46.310Z,55.51
2019-02-15T21:40:51.090Z,55.53
2019-02-15T21:42:59.755Z,55.61
2019-02-15T21:45:07.736Z,55.65
2019-02-15T21:47:12.997Z,55.56
2019-02-15T21:49:18.283Z,55.65
2019-02-15T21:51:23.379Z,55.80
2019-02-15T21:53:27.783Z,55.88
2019-02-15T21:55:33.125Z,56.59
2019-02-15T21:57:38.069Z,56.93
2019-02-15T21:59:43.553Z,56.82
2019-02-15T22:01:48.432Z,56.76
2019-02-15T22:03:53.786Z,56.91
2019-02-15T22:05:59.065Z,57.58
2019-02-15T22:08:04.010Z,57.74
2019-02-15T22:10:09.510Z,57.81
2019-02-15T22:12:14.709Z,57.89
2019-02-15T22:14:19.551Z,57.87
2019-02-15T22:16:25.128Z,57.72
2019-02-15T22:18:30.281Z,57.69
2019-02-15T22:20:35.340Z,57.75
2019-02-15T22:22:40.244Z,57.53
2019-02-15T22:24:45.143Z,57.29
2019-02-15T22:26:49.994Z,57.09
2019-02-15T22:28:54.788Z,56.89
2019-02-15T22:30:59.394Z,56.75
2019-02-15T22:33:04.366Z,56.64
2019-02-15T22:35:09.274Z,56.54
2019-02-15T22:37:14.398Z,56.48
2019-02-15T22:39:19.104Z,56.40
2019-02-15T22:41:23.786Z,56.39
2019-02-15T22:43:28.633Z,56.42
2019-02-15T22:45:33.345Z,56.53
2019-02-15T22:47:38.083Z,56.60
2019-02-15T22:49:43.671Z,56.53
2019-02-15T22:51:48.544Z,56.52
2019-02-15T22:53:54.677Z,56.47
2019-02-15T22:55:59.269Z,56.57
2019-02-15T22:58:04.648Z,56.55
2019-02-15T23:00:13.221Z,56.49
2019-02-15T23:02:18.272Z,56.51
2019-02-15T23:04:22.698Z,56.54
2019-02-15T23:06:27.615Z,56.54
2019-02-15T23:08:32.307Z,56.50
2019-02-15T23:10:37.067Z,56.54
2019-02-15T23:12:41.560Z,56.57
2019-02-15T23:14:46.431Z,56.57
2019-02-15T23:16:51.165Z,56.65
2019-02-15T23:18:56.155Z,56.67
2019-02-15T23:21:00.803Z,56.71
2019-02-15T23:23:06.581Z,56.74
2019-02-15T23:25:11.836Z,56.77
2019-02-15T23:27:16.449Z,56.76
2019-02-15T23:29:21.690Z,56.80
2019-02-15T23:31:26.324Z,56.84
2019-02-15T23:33:31.208Z,56.91
2019-02-15T23:35:35.757Z,56.95
2019-02-15T23:37:42.990Z,57.06
2019-02-15T23:39:47.454Z,57.21
2019-02-15T23:41:52.224Z,57.31
2019-02-15T23:43:56.651Z,57.33
2019-02-15T23:46:12.962Z,57.30
2019-02-15T23:48:51.058Z,57.28
2019-02-15T23:50:55.448Z,57.43
2019-02-15T23:53:30.747Z,57.52
2019-02-15T23:55:35.034Z,57.61
2019-02-15T23:57:40.652Z,57.64
2019-02-15T23:59:53.606Z,57.66
